Time;durP1;ratioP1;P1;durP2;ratioP2;P2;SDS_P1;SDS_P2;PMS_P1;PMS_P2;Temp;Humidity;BMP_temperature;BMP_pressure;BME280_temperature;BME280_humidity;BME280_pressure;Samples;Min_cycle;Max_cycle;Signal;HPM_P1;HPM_P2
2024/03/12 00:00:43;;;;;;;0.10;0.10;;;;;;;9.04;75.50;99885.56;7361821;19;20351;-62
2024/03/12 00:03:09;;;;;;;0.00;0.00;;;;;;;9.02;75.66;99884.75;7356482;19;20041;-61
2024/03/12 00:05:35;;;;;;;0.10;0.10;;;;;;;9.02;74.98;99879.53;7359139;19;20007;-62
2024/03/12 00:08:01;;;;;;;0.10;0.10;;;;;;;9.01;74.87;99885.66;7360321;19;20746;-62
2024/03/12 00:10:27;;;;;;;0.10;0.10;;;;;;;8.98;75.82;99863.16;7362375;19;20007;-62
2024/03/12 00:12:53;;;;;;;0.10;0.10;;;;;;;8.97;75.80;99857.97;7359848;19;20074;-62
2024/03/12 00:15:22;;;;;;;0.10;0.10;;;;;;;8.97;75.97;99850.16;7361648;19;20825;-62
2024/03/12 00:17:49;;;;;;;0.10;0.10;;;;;;;8.95;76.00;99842.41;7363705;19;20976;-62
2024/03/12 00:20:24;;;;;;;0.10;0.10;;;;;;;8.95;75.64;99845.03;7359806;19;20007;-61
2024/03/12 00:22:50;;;;;;;0.00;0.00;;;;;;;8.79;75.97;99800.38;7359947;19;20355;-62
2024/03/12 00:25:17;;;;;;;0.08;0.08;;;;;;;8.94;76.47;99827.69;7354699;19;20034;-61
2024/03/12 00:27:48;;;;;;;0.10;0.10;;;;;;;8.96;76.02;99818.06;7360805;19;20935;-61
2024/03/12 00:30:14;;;;;;;0.10;0.10;;;;;;;8.96;75.66;99822.44;7360946;19;20021;-61
2024/03/12 00:32:43;;;;;;;0.00;0.00;;;;;;;8.98;76.26;99815.44;7365795;19;20573;-60
2024/03/12 00:35:12;;;;;;;0.00;0.00;;;;;;;8.95;76.42;99815.53;7366744;19;20015;-61
2024/03/12 00:37:47;;;;;;;0.10;0.10;;;;;;;8.97;76.32;99809.38;7368137;19;20009;-61
2024/03/12 00:40:13;;;;;;;0.05;0.05;;;;;;;8.98;76.16;99805.88;7369807;19;20101;-61
2024/03/12 00:42:43;;;;;;;0.00;0.00;;;;;;;9.02;75.97;99804.88;7368030;19;20883;-61
2024/03/12 00:45:13;;;;;;;0.10;0.10;;;;;;;9.02;76.39;99799.69;7363536;19;20728;-61
2024/03/12 00:47:42;;;;;;;0.15;0.15;;;;;;;9.00;76.45;99803.22;7368048;19;20010;-61
2024/03/12 00:50:09;;;;;;;0.10;0.10;;;;;;;9.07;76.25;99786.50;7366396;19;20002;-61
2024/03/12 00:52:37;;;;;;;0.10;0.10;;;;;;;9.04;76.69;99784.84;7364452;19;20798;-61
2024/03/12 00:55:09;;;;;;;0.10;0.10;;;;;;;9.08;76.72;99778.66;7365919;19;20709;-61
2024/03/12 00:57:38;;;;;;;0.10;0.10;;;;;;;9.07;77.27;99758.72;7366700;19;20006;-61
2024/03/12 01:00:16;;;;;;;0.10;0.10;;;;;;;9.13;76.70;99756.81;7366721;19;20010;-61
2024/03/12 01:02:42;;;;;;;0.10;0.10;;;;;;;9.15;76.82;99752.41;7364561;19;20014;-61
2024/03/12 01:05:07;;;;;;;0.10;0.10;;;;;;;9.17;77.29;99748.84;7363754;19;20015;-61
2024/03/12 01:07:33;;;;;;;0.10;0.10;;;;;;;9.20;77.53;99750.50;7364888;19;20070;-61
2024/03/12 01:10:02;;;;;;;0.10;0.10;;;;;;;9.17;77.30;99734.97;7368497;19;20603;-61
2024/03/12 01:12:28;;;;;;;0.10;0.10;;;;;;;9.19;77.48;99710.59;7369034;19;20588;-61
2024/03/12 01:14:53;;;;;;;0.13;0.13;;;;;;;9.28;77.04;99719.88;7369405;19;20007;-61
2024/03/12 01:17:22;;;;;;;0.10;0.10;;;;;;;9.32;77.27;99711.00;7367367;19;20332;-60
2024/03/12 01:19:48;;;;;;;0.10;0.10;;;;;;;9.33;77.17;99704.94;7368179;19;20388;-61
2024/03/12 01:22:14;;;;;;;0.10;0.10;;;;;;;9.19;77.61;99671.50;7366532;19;20034;-61
2024/03/12 01:24:42;;;;;;;0.10;0.10;;;;;;;9.41;77.57;99713.31;7366721;19;20017;-60
2024/03/12 01:27:10;;;;;;;0.10;0.10;;;;;;;9.42;77.49;99688.97;7368316;19;20009;-60
2024/03/12 01:29:35;;;;;;;0.10;0.10;;;;;;;9.44;77.70;99681.97;7366389;19;20008;-61
2024/03/12 01:32:01;;;;;;;0.10;0.10;;;;;;;9.48;77.62;99680.06;7366573;19;20010;-61
2024/03/12 01:34:26;;;;;;;0.10;0.10;;;;;;;9.32;77.53;99638.06;7367842;19;19994;-61
2024/03/12 01:36:53;;;;;;;0.10;0.10;;;;;;;9.55;77.22;99682.44;7364536;19;20066;-61
2024/03/12 01:39:25;;;;;;;0.10;0.10;;;;;;;9.57;77.47;99669.34;7361848;19;20779;-61
2024/03/12 01:41:52;;;;;;;0.15;0.15;;;;;;;9.47;77.61;99653.16;7365393;19;20433;-61
2024/03/12 01:44:18;;;;;;;0.10;0.10;;;;;;;9.54;77.42;99643.41;7362641;19;20009;-61
2024/03/12 01:46:45;;;;;;;0.10;0.10;;;;;;;9.65;77.73;99658.66;7356893;19;20475;-61
2024/03/12 01:49:12;;;;;;;0.10;0.10;;;;;;;9.68;77.73;99661.13;7361371;19;20511;-61
2024/03/12 01:51:38;;;;;;;0.10;0.10;;;;;;;9.70;77.62;99643.69;7360282;19;20020;-62
2024/03/12 01:54:04;;;;;;;0.10;0.10;;;;;;;9.71;77.31;99634.97;7367380;19;20611;-61
2024/03/12 01:56:32;;;;;;;0.15;0.15;;;;;;;9.76;77.73;99640.88;7367337;19;20013;-62
2024/03/12 01:58:58;;;;;;;0.10;0.10;;;;;;;9.78;77.85;99636.44;7366097;19;20010;-61
2024/03/12 02:01:27;;;;;;;0.10;0.10;;;;;;;9.82;77.80;99638.03;7365616;19;20010;-61
2024/03/12 02:03:53;;;;;;;0.10;0.10;;;;;;;9.84;77.77;99625.81;7364502;19;20010;-62
2024/03/12 02:06:22;;;;;;;0.10;0.10;;;;;;;9.86;78.07;99626.59;7366906;19;20006;-60
2024/03/12 02:08:52;;;;;;;0.10;0.10;;;;;;;9.90;77.98;99620.34;7365664;19;20003;-61
2024/03/12 02:11:18;;;;;;;0.10;0.10;;;;;;;9.91;77.79;99614.22;7364382;19;20035;-61
2024/03/12 02:13:43;;;;;;;0.10;0.10;;;;;;;9.80;78.08;99582.50;7361014;19;21145;-62
2024/03/12 02:16:10;;;;;;;0.10;0.10;;;;;;;9.94;78.05;99606.31;7364356;19;20009;-61
2024/03/12 02:18:36;;;;;;;0.10;0.10;;;;;;;9.98;77.69;99602.66;7364114;19;20006;-61
2024/03/12 02:21:03;;;;;;;0.10;0.10;;;;;;;10.00;78.18;99598.25;7362380;19;20490;-60
2024/03/12 02:23:39;;;;;;;0.10;0.10;;;;;;;10.03;77.83;99589.44;7364991;19;20499;-61
2024/03/12 02:26:05;;;;;;;0.10;0.10;;;;;;;10.05;77.68;99588.47;7365183;19;20011;-61
2024/03/12 02:28:31;;;;;;;0.20;0.20;;;;;;;10.06;77.81;99590.19;7364336;19;20003;-61
2024/03/12 02:30:57;;;;;;;0.10;0.10;;;;;;;10.06;77.71;99587.56;7361836;19;20022;-61
2024/03/12 02:33:23;;;;;;;0.10;0.10;;;;;;;10.11;77.98;99596.06;7363171;19;20688;-61
2024/03/12 02:35:48;;;;;;;0.10;0.10;;;;;;;10.12;77.92;99576.88;7362875;19;20436;-61
2024/03/12 02:38:14;;;;;;;0.05;0.05;;;;;;;10.10;78.12;99576.13;7360333;19;20017;-61
2024/03/12 02:40:39;;;;;;;0.10;0.10;;;;;;;10.18;77.97;99574.94;7366586;19;20011;-61
2024/03/12 02:43:05;;;;;;;0.10;0.10;;;;;;;10.20;77.70;99570.53;7363470;19;20018;-61
2024/03/12 02:45:31;;;;;;;0.10;0.10;;;;;;;10.21;77.74;99567.88;7362026;19;20030;-61
2024/03/12 02:47:56;;;;;;;0.10;0.10;;;;;;;10.22;77.99;99560.88;7367954;19;20014;-61
2024/03/12 02:50:23;;;;;;;0.10;0.10;;;;;;;10.25;78.33;99552.97;7362954;19;20007;-60
2024/03/12 02:52:48;;;;;;;0.10;0.10;;;;;;;10.27;78.11;99556.38;7365333;19;20044;-59
2024/03/12 02:55:14;;;;;;;0.10;0.10;;;;;;;10.29;78.23;99554.53;7360089;19;20007;-60
2024/03/12 02:57:39;;;;;;;0.10;0.10;;;;;;;10.31;78.01;99550.13;7361594;19;19998;-61
2024/03/12 03:00:11;;;;;;;0.10;0.10;;;;;;;10.34;77.91;99542.16;7363322;19;19998;-61
2024/03/12 03:02:36;;;;;;;0.10;0.10;;;;;;;10.35;78.12;99549.09;7365588;19;20007;-61
2024/03/12 03:05:02;;;;;;;0.10;0.10;;;;;;;10.37;78.42;99542.88;7362454;19;21307;-60
2024/03/12 03:07:28;;;;;;;0.10;0.10;;;;;;;10.40;78.02;99541.94;7362704;19;20044;-60
2024/03/12 03:09:53;;;;;;;0.20;0.20;;;;;;;10.41;78.27;99543.63;7363151;19;19999;-60
2024/03/12 03:12:19;;;;;;;0.03;0.03;;;;;;;10.43;78.36;99541.78;7362126;19;20006;-61
2024/03/12 03:14:44;;;;;;;0.10;0.10;;;;;;;10.44;78.13;99533.06;7359217;19;20006;-61
2024/03/12 03:17:10;;;;;;;0.10;0.10;;;;;;;10.45;78.34;99524.31;7363383;19;20504;-61
2024/03/12 03:19:35;;;;;;;0.10;0.10;;;;;;;10.49;78.55;99530.25;7357651;19;20086;-61
2024/03/12 03:22:01;;;;;;;0.10;0.10;;;;;;;10.37;78.59;99506.34;7365827;19;20006;-60
2024/03/12 03:24:26;;;;;;;0.10;0.10;;;;;;;10.52;78.66;99528.38;7366552;19;20043;-61
2024/03/12 03:26:52;;;;;;;0.10;0.10;;;;;;;10.54;78.27;99529.16;7365403;19;20683;-61
2024/03/12 03:29:21;;;;;;;0.10;0.10;;;;;;;10.56;78.58;99527.34;7365612;19;20005;-61
2024/03/12 03:31:48;;;;;;;0.10;0.10;;;;;;;10.57;78.45;99518.59;7359873;19;20123;-61
2024/03/12 03:34:14;;;;;;;0.10;0.10;;;;;;;10.51;78.41;99502.34;7365436;19;20003;-61
2024/03/12 03:36:40;;;;;;;0.10;0.10;;;;;;;10.60;78.33;99513.25;7364084;19;20442;-60
2024/03/12 03:39:05;;;;;;;0.10;0.10;;;;;;;10.62;78.73;99519.25;7365224;19;20007;-61
2024/03/12 03:41:30;;;;;;;0.10;0.10;;;;;;;10.64;78.60;99522.66;7361691;19;20473;-61
2024/03/12 03:43:56;;;;;;;0.17;0.17;;;;;;;10.65;78.38;99516.50;7362659;19;20663;-61
2024/03/12 03:46:23;;;;;;;0.10;0.10;;;;;;;10.65;78.74;99513.91;7364401;19;20002;-61
2024/03/12 03:48:48;;;;;;;0.03;0.03;;;;;;;10.68;78.61;99519.91;7363983;19;20002;-61
2024/03/12 03:51:14;;;;;;;0.10;0.10;;;;;;;10.70;78.56;99518.09;7365237;19;20503;-61
2024/03/12 03:53:40;;;;;;;0.10;0.10;;;;;;;10.72;78.65;99516.25;7365491;19;20007;-62
2024/03/12 03:56:12;;;;;;;0.10;0.10;;;;;;;10.74;78.63;99514.41;7361638;19;19994;-61
2024/03/12 03:58:38;;;;;;;0.10;0.10;;;;;;;10.59;78.44;99485.44;7365667;19;20577;-61
2024/03/12 04:01:03;;;;;;;0.10;0.10;;;;;;;10.75;78.37;99505.69;7362774;19;20002;-61
2024/03/12 04:03:29;;;;;;;0.10;0.10;;;;;;;10.76;78.36;99507.38;7361050;19;20515;-61
2024/03/12 04:05:56;;;;;;;0.10;0.10;;;;;;;10.75;78.79;99506.53;7360169;19;19998;-61
2024/03/12 04:08:22;;;;;;;0.00;0.00;;;;;;;10.75;78.80;99505.69;7373821;19;20097;-61
2024/03/12 04:10:48;;;;;;;0.10;0.10;;;;;;;10.75;78.87;99506.53;7371179;19;20370;-62
2024/03/12 04:13:14;;;;;;;0.10;0.10;;;;;;;10.73;78.48;99502.28;7371651;19;19998;-61
2024/03/12 04:15:40;;;;;;;0.10;0.10;;;;;;;10.75;78.78;99505.69;7370610;19;20028;-62
2024/03/12 04:18:06;;;;;;;0.10;0.10;;;;;;;10.61;78.51;99488.00;7353115;19;20002;-62
2024/03/12 04:20:31;;;;;;;0.10;0.10;;;;;;;10.74;78.65;99509.19;7368994;19;20025;-62
2024/03/12 04:22:57;;;;;;;0.10;0.10;;;;;;;10.75;78.62;99513.53;7368977;19;20005;-62
2024/03/12 04:25:22;;;;;;;0.10;0.10;;;;;;;10.74;78.57;99509.19;7368670;19;20002;-62
2024/03/12 04:27:48;;;;;;;0.03;0.03;;;;;;;10.74;78.94;99509.19;7368241;19;20010;-62
2024/03/12 04:30:13;;;;;;;0.20;0.20;;;;;;;10.73;78.48;99517.94;7372748;19;20010;-62
2024/03/12 04:32:40;;;;;;;0.20;0.20;;;;;;;10.71;78.93;99510.19;7367479;19;20104;-61
2024/03/12 04:35:08;;;;;;;0.10;0.10;;;;;;;10.70;78.91;99512.88;7369545;19;20011;-61
2024/03/12 04:37:34;;;;;;;0.00;0.00;;;;;;;10.62;78.77;99498.34;7369946;19;20041;-62
2024/03/12 04:40:00;;;;;;;0.10;0.10;;;;;;;10.66;78.40;99506.91;7369947;19;20943;-62
2024/03/12 04:42:27;;;;;;;0.10;0.10;;;;;;;10.62;78.64;99503.56;7367443;19;20484;-63
2024/03/12 04:44:56;;;;;;;0.10;0.10;;;;;;;10.58;78.79;99498.53;7366898;19;20032;-62
2024/03/12 04:47:22;;;;;;;0.10;0.10;;;;;;;10.58;78.46;99509.84;7373231;19;20015;-62
2024/03/12 04:49:47;;;;;;;0.08;0.08;;;;;;;10.55;78.89;99517.81;7367426;19;20285;-62
2024/03/12 04:52:13;;;;;;;0.10;0.10;;;;;;;10.52;78.97;99525.75;7368663;19;19999;-62
2024/03/12 04:54:39;;;;;;;0.10;0.10;;;;;;;10.49;78.77;99520.69;7372632;19;20515;-62
2024/03/12 04:57:04;;;;;;;0.10;0.10;;;;;;;10.47;78.67;99522.47;7370589;19;20010;-62
2024/03/12 04:59:30;;;;;;;0.10;0.10;;;;;;;10.44;78.88;99527.84;7369373;19;20007;-62
2024/03/12 05:01:55;;;;;;;0.00;0.00;;;;;;;10.28;79.03;99503.25;7371990;19;20011;-62
2024/03/12 05:04:22;;;;;;;0.10;0.10;;;;;;;10.42;78.86;99529.66;7363645;19;20009;-62
2024/03/12 05:06:47;;;;;;;0.10;0.10;;;;;;;10.32;79.21;99515.28;7369840;19;20002;-62
2024/03/12 05:09:17;;;;;;;0.10;0.10;;;;;;;10.36;79.10;99522.94;7369878;19;20016;-62
2024/03/12 05:11:43;;;;;;;0.10;0.10;;;;;;;10.41;78.95;99527.97;7372164;19;20095;-62
2024/03/12 05:14:08;;;;;;;0.15;0.15;;;;;;;10.42;78.98;99524.44;7370037;19;20005;-62
2024/03/12 05:16:34;;;;;;;0.10;0.10;;;;;;;10.43;79.30;99520.06;7368798;19;20414;-62
2024/03/12 05:18:59;;;;;;;0.10;0.10;;;;;;;10.43;79.36;99520.91;7364085;19;20005;-62
2024/03/12 05:21:26;;;;;;;0.10;0.10;;;;;;;10.44;79.28;99525.25;7368118;19;20041;-62
2024/03/12 05:23:55;;;;;;;0.10;0.10;;;;;;;10.45;79.41;99529.53;7366425;19;20007;-62
2024/03/12 05:26:26;;;;;;;0.13;0.13;;;;;;;10.44;79.43;99530.47;7367929;19;20454;-62
2024/03/12 05:28:57;;;;;;;0.10;0.10;;;;;;;10.42;78.95;99524.44;7369497;19;20007;-62
2024/03/12 05:31:29;;;;;;;0.10;0.10;;;;;;;10.44;79.03;99534.81;7366535;19;20010;-62
2024/03/12 05:34:02;;;;;;;0.10;0.10;;;;;;;10.44;78.93;99525.25;7365734;19;20022;-62
2024/03/12 05:36:40;;;;;;;0.10;0.10;;;;;;;10.42;78.94;99528.81;7367631;19;20496;-63
2024/03/12 05:39:37;;;;;;;0.10;0.10;;;;;;;10.30;79.23;99519.72;7367518;19;20748;-62
2024/03/12 05:50:16;;;;;;;0.10;0.10;;;;;;;10.41;79.32;99554.06;7370850;19;20033;-62
2024/03/12 05:52:45;;;;;;;0.10;0.10;;;;;;;10.44;79.01;99563.50;7365110;19;20017;-62
2024/03/12 05:55:11;;;;;;;0.10;0.10;;;;;;;10.45;79.47;99560.88;7370430;19;20014;-62
2024/03/12 05:57:37;;;;;;;0.10;0.10;;;;;;;10.49;79.15;99557.22;7366863;19;20017;-62
2024/03/12 06:00:08;;;;;;;0.10;0.10;;;;;;;10.53;79.05;99563.16;7370057;19;20014;-62
2024/03/12 06:02:33;;;;;;;0.20;0.20;;;;;;;10.56;79.54;99563.03;7369755;19;20006;-62
2024/03/12 06:04:59;;;;;;;0.10;0.10;;;;;;;10.60;79.49;99565.47;7364208;19;20017;-62
2024/03/12 06:07:24;;;;;;;0.15;0.15;;;;;;;10.65;79.21;99568.72;7365730;19;19990;-62
2024/03/12 06:09:51;;;;;;;0.10;0.10;;;;;;;10.69;79.02;99573.81;7366260;19;20308;-62
2024/03/12 06:12:18;;;;;;;0.10;0.10;;;;;;;10.74;79.06;99571.84;7363558;19;20829;-62
2024/03/12 06:14:43;;;;;;;0.10;0.10;;;;;;;10.76;79.15;99570.91;7367224;19;20021;-62
2024/03/12 06:17:09;;;;;;;0.20;0.20;;;;;;;10.80;79.08;99561.19;7365891;19;20006;-62
2024/03/12 06:19:34;;;;;;;0.10;0.10;;;;;;;10.84;79.11;99575.78;7367789;19;20006;-63
2024/03/12 06:21:59;;;;;;;0.10;0.10;;;;;;;10.86;79.10;99582.66;7364925;19;20003;-62
2024/03/12 06:24:25;;;;;;;0.15;0.15;;;;;;;10.89;78.74;99572.06;7364149;19;20045;-62
2024/03/12 06:26:51;;;;;;;0.10;0.10;;;;;;;10.89;79.09;99576.44;7363843;19;20003;-62
2024/03/12 06:29:17;;;;;;;0.10;0.10;;;;;;;10.92;79.06;99576.31;7368038;19;20006;-63
2024/03/12 06:31:44;;;;;;;0.10;0.10;;;;;;;10.94;78.58;99579.72;7367796;19;20081;-62
2024/03/12 06:34:10;;;;;;;0.10;0.10;;;;;;;10.96;78.71;99580.50;7360324;19;20014;-62
2024/03/12 06:36:37;;;;;;;0.10;0.10;;;;;;;10.97;78.71;99584.81;7365694;19;19995;-62
2024/03/12 06:39:05;;;;;;;0.20;0.20;;;;;;;10.96;78.75;99588.34;7367433;19;20411;-63
2024/03/12 06:41:31;;;;;;;0.10;0.10;;;;;;;10.99;79.05;99585.59;7366581;19;20372;-62
2024/03/12 06:43:57;;;;;;;0.10;0.10;;;;;;;11.00;78.94;99595.16;7362192;19;20430;-62
2024/03/12 06:46:22;;;;;;;0.10;0.10;;;;;;;10.97;78.85;99584.81;7367955;19;20010;-62
2024/03/12 06:48:48;;;;;;;0.10;0.10;;;;;;;11.02;78.63;99595.06;7365954;19;20002;-62
2024/03/12 06:51:13;;;;;;;0.10;0.10;;;;;;;11.02;78.63;99603.75;7369916;19;20025;-62
2024/03/12 06:53:39;;;;;;;0.10;0.10;;;;;;;11.02;78.90;99603.75;7364770;19;20006;-63
2024/03/12 06:56:05;;;;;;;0.05;0.05;;;;;;;10.89;78.74;99576.44;7369635;19;20014;-62
2024/03/12 06:58:31;;;;;;;0.10;0.10;;;;;;;11.01;79.02;99601.22;7362492;19;20038;-63
2024/03/12 07:00:57;;;;;;;0.10;0.10;;;;;;;10.98;79.00;99606.56;7365946;19;20368;-62
2024/03/12 07:03:24;;;;;;;0.10;0.10;;;;;;;10.86;79.06;99584.41;7365437;19;20018;-62
2024/03/12 07:05:50;;;;;;;0.20;0.20;;;;;;;10.96;78.52;99609.25;7358973;19;20013;-63
2024/03/12 07:08:17;;;;;;;0.10;0.10;;;;;;;10.93;78.86;99611.97;7368582;19;20367;-62
2024/03/12 07:10:43;;;;;;;0.10;0.10;;;;;;;10.94;79.01;99611.06;7360521;19;20010;-62
2024/03/12 07:13:09;;;;;;;0.15;0.15;;;;;;;10.84;78.93;99600.13;7364977;19;20015;-63
2024/03/12 07:15:38;;;;;;;0.10;0.10;;;;;;;10.93;78.92;99614.59;7362566;19;20030;-62
2024/03/12 07:18:05;;;;;;;0.10;0.10;;;;;;;10.92;79.16;99612.88;7362685;19;20070;-62
2024/03/12 07:20:31;;;;;;;0.10;0.10;;;;;;;10.92;79.23;99612.88;7364563;19;20015;-62
2024/03/12 07:22:59;;;;;;;0.10;0.10;;;;;;;10.91;78.83;99612.03;7361623;19;20474;-63
2024/03/12 07:25:30;;;;;;;0.15;0.15;;;;;;;10.93;78.97;99614.59;7358448;19;20108;-63
2024/03/12 07:27:59;;;;;;;0.10;0.10;;;;;;;10.95;78.85;99618.00;7362170;19;19999;-62
2024/03/12 07:30:24;;;;;;;0.10;0.10;;;;;;;10.95;78.97;99622.34;7359204;19;20066;-63
2024/03/12 07:32:51;;;;;;;0.10;0.10;;;;;;;10.81;79.37;99599.44;7361639;19;20445;-62
2024/03/12 07:35:17;;;;;;;0.10;0.10;;;;;;;10.95;78.92;99620.63;7363391;19;20002;-62
2024/03/12 07:37:43;;;;;;;0.10;0.10;;;;;;;10.98;78.99;99636.13;7363802;19;20089;-62
2024/03/12 07:40:09;;;;;;;0.10;0.10;;;;;;;11.00;79.35;99636.94;7366983;19;20453;-63
2024/03/12 07:42:41;;;;;;;0.10;0.10;;;;;;;11.03;79.23;99647.25;7367492;19;20006;-62
2024/03/12 07:45:08;;;;;;;0.10;0.10;;;;;;;11.02;79.09;99642.94;7367833;19;20098;-63
2024/03/12 07:47:35;;;;;;;0.10;0.10;;;;;;;11.04;79.04;99638.50;7373526;19;20011;-62
2024/03/12 07:50:03;;;;;;;0.10;0.10;;;;;;;11.05;79.06;99641.94;7372524;19;20569;-62
2024/03/12 07:52:30;;;;;;;0.10;0.10;;;;;;;11.08;78.86;99642.69;7371435;19;20003;-63
2024/03/12 07:54:56;;;;;;;0.10;0.10;;;;;;;11.09;79.07;99648.75;7372427;19;20088;-63
2024/03/12 07:57:22;;;;;;;0.10;0.10;;;;;;;11.10;78.95;99650.44;7370807;19;20007;-62
2024/03/12 07:59:48;;;;;;;0.10;0.10;;;;;;;11.12;79.30;99646.88;7371464;19;20506;-62
2024/03/12 08:02:15;;;;;;;0.10;0.10;;;;;;;11.13;79.01;99659.00;7368588;19;20013;-63
2024/03/12 08:04:44;;;;;;;0.10;0.10;;;;;;;11.16;78.86;99652.81;7371479;19;20486;-63
2024/03/12 08:07:10;;;;;;;0.10;0.10;;;;;;;11.16;79.18;99656.28;7373041;19;20010;-63
2024/03/12 08:09:36;;;;;;;0.00;0.00;;;;;;;11.16;78.96;99658.91;7371440;19;20724;-63
2024/03/12 08:12:02;;;;;;;0.10;0.10;;;;;;;11.17;78.67;99663.22;7370929;19;20595;-62
2024/03/12 08:14:28;;;;;;;0.10;0.10;;;;;;;11.16;79.14;99664.13;7370185;19;20038;-62
2024/03/12 08:16:54;;;;;;;0.10;0.10;;;;;;;11.14;78.79;99657.25;7367445;19;20003;-63
2024/03/12 08:19:19;;;;;;;0.10;0.10;;;;;;;11.16;79.08;99656.28;7367120;19;20030;-63
2024/03/12 08:21:45;;;;;;;0.10;0.10;;;;;;;11.14;78.91;99650.25;7368906;19;20027;-63
2024/03/12 08:24:10;;;;;;;0.10;0.10;;;;;;;11.14;78.84;99660.72;7368824;19;20006;-63
2024/03/12 08:26:37;;;;;;;0.15;0.15;;;;;;;11.16;79.03;99658.91;7370684;19;20006;-63
2024/03/12 08:29:03;;;;;;;0.10;0.10;;;;;;;11.17;79.30;99655.38;7365951;19;20007;-62
2024/03/12 08:31:28;;;;;;;0.10;0.10;;;;;;;11.18;79.31;99671.88;7366469;19;20018;-63
2024/03/12 08:33:54;;;;;;;0.20;0.20;;;;;;;11.20;79.10;99663.97;7359162;19;20007;-62
2024/03/12 08:36:21;;;;;;;0.10;0.10;;;;;;;11.21;78.93;99676.16;7358079;19;20093;-62
2024/03/12 08:38:47;;;;;;;0.10;0.10;;;;;;;11.22;79.17;99667.41;7356148;19;20101;-63
2024/03/12 08:41:13;;;;;;;0.10;0.10;;;;;;;11.23;79.05;99664.72;7369000;19;20082;-63
2024/03/12 08:43:39;;;;;;;0.20;0.20;;;;;;;11.24;79.05;99666.41;7365018;19;19999;-62
2024/03/12 08:46:07;;;;;;;0.20;0.20;;;;;;;11.27;78.90;99671.50;7365157;19;20023;-62
2024/03/12 08:48:34;;;;;;;0.10;0.10;;;;;;;11.29;79.38;99674.06;7369369;19;20518;-63
2024/03/12 08:51:03;;;;;;;0.10;0.10;;;;;;;11.31;79.17;99680.09;7368336;19;20050;-62
2024/03/12 08:53:30;;;;;;;0.05;0.05;;;;;;;11.33;78.92;99679.09;7372464;19;20023;-63
2024/03/12 08:55:57;;;;;;;0.10;0.10;;;;;;;11.34;79.27;99685.16;7368590;19;20010;-63
2024/03/12 08:58:23;;;;;;;0.10;0.10;;;;;;;11.35;79.01;99684.25;7367920;19;20018;-63
2024/03/12 09:00:48;;;;;;;0.10;0.10;;;;;;;11.26;79.24;99674.19;7370730;19;20560;-63
2024/03/12 09:03:14;;;;;;;0.10;0.10;;;;;;;11.41;79.20;99684.00;7365895;19;20007;-63
2024/03/12 09:05:40;;;;;;;0.10;0.10;;;;;;;11.43;78.77;99682.16;7358677;19;20491;-63
2024/03/12 09:08:06;;;;;;;0.10;0.10;;;;;;;11.47;79.25;99694.19;7369687;19;20002;-63
2024/03/12 09:10:33;;;;;;;0.10;0.10;;;;;;;11.48;78.83;99690.66;7366650;19;20078;-63
2024/03/12 09:12:59;;;;;;;0.10;0.10;;;;;;;11.52;79.24;99694.84;7370452;19;20597;-63
2024/03/12 09:15:25;;;;;;;0.10;0.10;;;;;;;11.54;79.04;99695.63;7364884;19;20021;-63
2024/03/12 09:17:50;;;;;;;0.10;0.10;;;;;;;11.58;79.23;99702.44;7367600;19;20014;-64
2024/03/12 09:20:16;;;;;;;0.10;0.10;;;;;;;11.62;79.32;99693.53;7368526;19;20014;-63
2024/03/12 09:22:44;;;;;;;0.10;0.10;;;;;;;11.66;78.79;99684.66;7368669;19;20006;-64
2024/03/12 09:25:11;;;;;;;0.10;0.10;;;;;;;11.70;78.76;99686.19;7363157;19;20006;-63
2024/03/12 09:27:37;;;;;;;0.10;0.10;;;;;;;11.73;78.70;99698.31;7368621;19;20026;-63
2024/03/12 09:30:05;;;;;;;0.10;0.10;;;;;;;11.78;78.92;99690.25;7358325;19;20015;-64
2024/03/12 09:32:30;;;;;;;;;;;;;;;11.88;79.31;99694.22;7366844;19;20022;-63
2024/03/12 09:34:55;;;;;;;0.10;0.10;;;;;;;11.89;79.18;99682.81;7365100;19;20676;-63
2024/03/12 09:37:21;;;;;;;0.10;0.10;;;;;;;11.93;79.20;99685.22;7368672;19;19995;-64
2024/03/12 09:39:51;;;;;;;0.10;0.10;;;;;;;11.94;79.22;99673.00;7370150;19;20002;-63
2024/03/12 09:42:19;;;;;;;0.10;0.10;;;;;;;12.02;78.78;99691.00;7368994;19;20013;-63
2024/03/12 09:44:45;;;;;;;0.10;0.10;;;;;;;12.03;78.52;99701.38;7367560;19;20010;-63
2024/03/12 09:47:11;;;;;;;0.10;0.10;;;;;;;11.97;78.54;99682.50;7367276;19;20003;-63
2024/03/12 09:49:37;;;;;;;0.10;0.10;;;;;;;12.06;78.81;99703.00;7369106;19;20009;-64
2024/03/12 09:52:06;;;;;;;0.10;0.10;;;;;;;12.06;78.75;99703.00;7363846;19;19999;-64
2024/03/12 09:54:35;;;;;;;0.10;0.10;;;;;;;12.20;78.96;99709.31;7368469;19;20029;-64
2024/03/12 09:57:02;;;;;;;0.10;0.10;;;;;;;12.32;78.98;99720.16;7366195;19;20353;-63
2024/03/12 09:59:27;;;;;;;0.10;0.10;;;;;;;12.45;78.95;99716.88;7368750;19;20010;-64
2024/03/12 10:01:53;;;;;;;0.00;0.00;;;;;;;12.60;79.07;99714.50;7365756;19;20010;-64
2024/03/12 10:04:18;;;;;;;0.10;0.10;;;;;;;12.58;78.61;99679.69;7364996;19;20003;-63
2024/03/12 10:06:44;;;;;;;0.10;0.10;;;;;;;12.88;78.39;99703.56;7367842;19;20056;-64
2024/03/12 10:09:17;;;;;;;0.10;0.10;;;;;;;13.01;78.56;99704.66;7362551;19;20017;-64
2024/03/12 10:11:45;;;;;;;0.10;0.10;;;;;;;13.12;77.57;99712.84;7368990;19;20760;-65
2024/03/12 10:14:12;;;;;;;0.10;0.10;;;;;;;13.27;77.37;99715.66;7366776;19;20030;-64
2024/03/12 10:16:38;;;;;;;0.10;0.10;;;;;;;13.38;77.31;99721.22;7370238;19;20022;-65
2024/03/12 10:19:09;;;;;;;0.10;0.10;;;;;;;13.59;77.64;99722.78;7360405;19;20415;-64
2024/03/12 10:21:37;;;;;;;0.15;0.15;;;;;;;13.76;77.64;99720.13;7366962;19;20089;-65
2024/03/12 10:24:17;;;;;;;0.10;0.10;;;;;;;13.90;77.22;99722.06;7364257;19;20003;-63
2024/03/12 10:26:46;;;;;;;0.10;0.10;;;;;;;13.98;76.86;99740.00;7363641;19;20490;-64
2024/03/12 10:29:16;;;;;;;0.10;0.10;;;;;;;14.00;76.17;99739.03;7368378;19;20002;-64
2024/03/12 10:31:45;;;;;;;0.10;0.10;;;;;;;13.99;76.30;99741.72;7364685;19;20019;-64
2024/03/12 10:34:19;;;;;;;0.10;0.10;;;;;;;14.00;75.94;99752.16;7365717;19;19998;-63
2024/03/12 10:36:49;;;;;;;0.17;0.17;;;;;;;14.03;76.26;99743.25;7360797;19;20046;-63
2024/03/12 10:39:32;;;;;;;0.10;0.10;;;;;;;14.13;76.69;99728.72;7357693;19;20343;-63
2024/03/12 10:41:59;;;;;;;0.10;0.10;;;;;;;14.16;76.55;99736.44;7355382;19;20021;-64
2024/03/12 10:44:29;;;;;;;0.10;0.10;;;;;;;14.27;76.33;99726.19;7355013;19;20002;-64
2024/03/12 10:46:59;;;;;;;0.10;0.10;;;;;;;14.34;75.85;99731.97;7355617;19;20007;-63
2024/03/12 10:49:24;;;;;;;0.10;0.10;;;;;;;14.47;76.82;99737.41;7355467;19;19994;-63
2024/03/12 10:51:52;;;;;;;0.10;0.10;;;;;;;14.58;76.06;99727.19;7353879;19;20078;-64
2024/03/12 10:54:22;;;;;;;0.10;0.10;;;;;;;14.62;75.89;99728.72;7366092;19;20019;-63
2024/03/12 10:56:48;;;;;;;0.10;0.10;;;;;;;14.70;76.24;99729.19;7364807;19;20573;-63
2024/03/12 10:59:16;;;;;;;0.10;0.10;;;;;;;14.75;76.14;99721.00;7367074;19;20002;-62
2024/03/12 11:01:42;;;;;;;0.10;0.10;;;;;;;14.86;75.83;99725.69;7367083;19;20010;-63
2024/03/12 11:04:09;;;;;;;0.10;0.10;;;;;;;14.96;76.25;99721.63;7365473;19;20621;-63
2024/03/12 11:06:36;;;;;;;0.20;0.20;;;;;;;15.08;75.93;99738.47;7364450;19;20066;-63
2024/03/12 11:09:02;;;;;;;0.20;0.20;;;;;;;15.17;75.19;99733.53;7367502;19;20618;-63
2024/03/12 11:11:28;;;;;;;0.10;0.10;;;;;;;15.29;75.00;99735.44;7367651;19;20090;-64
2024/03/12 11:13:55;;;;;;;0.10;0.10;;;;;;;15.43;75.09;99736.44;7362455;19;20009;-63
2024/03/12 11:16:20;;;;;;;0.10;0.10;;;;;;;15.58;75.42;99744.28;7362651;19;20012;-63
2024/03/12 11:18:49;;;;;;;0.10;0.10;;;;;;;15.71;75.04;99735.69;7361404;19;20041;-63
2024/03/12 11:21:23;;;;;;;0.10;0.10;;;;;;;15.90;74.86;99753.88;7366158;19;20006;-63
2024/03/12 11:23:48;;;;;;;0.13;0.13;;;;;;;15.91;74.42;99755.56;7360002;19;20013;-63
2024/03/12 11:26:15;;;;;;;0.20;0.20;;;;;;;15.94;74.42;99750.13;7366282;19;20010;-62
2024/03/12 11:28:48;;;;;;;0.10;0.10;;;;;;;16.01;74.94;99761.97;7365113;19;20015;-62
2024/03/12 11:31:14;;;;;;;0.10;0.10;;;;;;;15.94;74.75;99747.50;7365814;19;20042;-63
2024/03/12 11:33:51;;;;;;;0.10;0.10;;;;;;;15.87;74.46;99754.09;7362526;19;19999;-63
2024/03/12 11:36:39;;;;;;;0.10;0.10;;;;;;;15.77;74.35;99757.25;7362882;19;20011;-62
2024/03/12 11:39:15;;;;;;;0.10;0.10;;;;;;;15.56;74.54;99745.31;7367583;19;20010;-63
2024/03/12 11:42:05;;;;;;;0.10;0.10;;;;;;;15.55;74.94;99773.41;7364576;19;20047;-62